Time;durP1;ratioP1;P1;durP2;ratioP2;P2;SDS_P1;SDS_P2;PMS_P1;PMS_P2;Temp;Humidity;BMP_temperature;BMP_pressure;BME280_temperature;BME280_humidity;BME280_pressure;Samples;Min_cycle;Max_cycle;Signal;HPM_P1;HPM_P2
2023/12/31 00:00:15;;;;;;;1.40;1.30;;;;;;;9.42;77.93;100337.63;5061796;28;20029;-64
2023/12/31 00:02:40;;;;;;;3.95;1.65;;;;;;;9.42;77.28;100337.63;5070257;28;20032;-64
2023/12/31 00:05:06;;;;;;;2.65;1.35;;;;;;;9.43;77.72;100325.47;5070989;28;20043;-64
2023/12/31 00:07:31;;;;;;;2.88;1.50;;;;;;;9.42;77.20;100323.78;5076156;28;20044;-65
2023/12/31 00:09:57;;;;;;;1.65;1.40;;;;;;;9.45;76.80;100311.34;5091200;28;20032;-65
2023/12/31 00:12:22;;;;;;;3.63;1.98;;;;;;;9.43;76.36;100306.06;5074819;28;20032;-64
2023/12/31 00:14:47;;;;;;;4.75;1.40;;;;;;;9.44;76.50;100301.38;5063678;28;20557;-65
2023/12/31 00:17:13;;;;;;;4.30;1.40;;;;;;;9.44;76.03;100296.66;5050818;28;20022;-64
2023/12/31 00:19:38;;;;;;;2.47;1.40;;;;;;;9.44;75.48;100282.81;5085338;28;20036;-65
2023/12/31 00:22:03;;;;;;;5.30;1.40;;;;;;;9.46;75.65;100274.22;5089983;28;20055;-65
2023/12/31 00:24:29;;;;;;;2.72;1.25;;;;;;;9.46;75.13;100261.22;5079855;28;20040;-64
2023/12/31 00:26:54;;;;;;;2.25;1.33;;;;;;;9.44;74.97;100260.66;5080263;28;20066;-64
2023/12/31 00:29:19;;;;;;;1.95;1.58;;;;;;;9.44;75.09;100268.97;5090398;28;20065;-64
2023/12/31 00:31:45;;;;;;;2.80;1.65;;;;;;;9.44;75.13;100252.34;5090562;28;20391;-64
2023/12/31 00:34:11;;;;;;;3.38;1.60;;;;;;;9.44;75.16;100257.88;5090988;28;20031;-64
2023/12/31 00:36:36;;;;;;;3.60;1.48;;;;;;;9.45;75.16;100256.78;5090096;28;20032;-64
2023/12/31 00:39:02;;;;;;;1.90;1.30;;;;;;;9.46;74.86;100255.66;5079857;28;20059;-64
2023/12/31 00:41:27;;;;;;;2.08;1.33;;;;;;;9.48;74.67;100242.41;5070724;28;20103;-64
2023/12/31 00:43:52;;;;;;;4.38;1.70;;;;;;;9.48;74.99;100242.41;5077013;28;20024;-64
2023/12/31 00:46:17;;;;;;;4.07;1.70;;;;;;;9.50;74.43;100231.88;5076702;28;20078;-64
2023/12/31 00:48:43;;;;;;;1.25;1.15;;;;;;;9.50;74.27;100225.53;5084015;28;20032;-64
2023/12/31 00:51:08;;;;;;;1.80;1.45;;;;;;;9.48;73.95;100223.03;5093242;28;20383;-64
2023/12/31 00:53:34;;;;;;;1.55;1.38;;;;;;;9.45;74.04;100218.00;5093100;28;20103;-65
2023/12/31 00:55:59;;;;;;;2.65;1.48;;;;;;;9.44;74.03;100221.03;5072291;28;20032;-64
2023/12/31 00:58:24;;;;;;;2.33;1.50;;;;;;;9.49;74.35;100215.53;5073586;28;20502;-64
2023/12/31 01:00:50;;;;;;;4.88;1.55;;;;;;;9.49;74.26;100221.09;5092989;28;20040;-64
2023/12/31 01:03:15;;;;;;;2.60;1.30;;;;;;;9.52;74.17;100221.41;5093695;28;20383;-65
2023/12/31 01:05:40;;;;;;;3.10;1.45;;;;;;;9.53;73.58;100211.16;5061740;28;20147;-64
2023/12/31 01:08:06;;;;;;;2.97;1.30;;;;;;;9.49;73.60;100202.53;5075176;28;20740;-65
2023/12/31 01:10:31;;;;;;;4.20;1.40;;;;;;;9.49;73.83;100204.47;5071892;28;20032;-65
2023/12/31 01:12:56;;;;;;;1.45;1.30;;;;;;;9.49;73.53;100204.47;5073377;28;20032;-65
2023/12/31 01:15:22;;;;;;;2.38;1.52;;;;;;;9.47;73.43;100190.03;5073571;28;20020;-65
2023/12/31 01:17:48;;;;;;;1.80;1.48;;;;;;;9.47;73.55;100178.94;5092753;28;20040;-65
2023/12/31 01:20:14;;;;;;;2.05;1.50;;;;;;;9.47;73.25;100174.25;5093497;28;20039;-65
2023/12/31 01:22:39;;;;;;;2.67;1.50;;;;;;;9.44;72.58;100185.88;5057492;28;20027;-65
2023/12/31 01:25:05;;;;;;;2.72;1.80;;;;;;;9.47;73.34;100179.81;5080478;28;20023;-65
2023/12/31 01:27:30;;;;;;;2.25;1.50;;;;;;;9.48;73.27;100159.31;5093516;28;20032;-65
2023/12/31 01:29:56;;;;;;;2.42;1.42;;;;;;;9.51;73.44;100157.94;5093913;28;20021;-64
2023/12/31 01:32:21;;;;;;;3.40;1.60;;;;;;;9.51;72.79;100158.78;5092928;28;20425;-65
2023/12/31 01:34:46;;;;;;;4.93;1.50;;;;;;;9.52;72.60;100156.84;5093274;28;20031;-65
2023/12/31 01:37:12;;;;;;;2.03;1.63;;;;;;;9.50;72.51;100162.63;5093361;28;20750;-64
2023/12/31 01:39:37;;;;;;;2.13;1.35;;;;;;;9.50;72.47;100153.50;5076564;28;20074;-65
2023/12/31 01:42:03;;;;;;;2.45;1.73;;;;;;;9.50;72.36;100146.00;5077964;28;20025;-65
2023/12/31 01:44:28;;;;;;;1.98;1.38;;;;;;;9.49;72.41;100140.75;5075460;28;20467;-65
2023/12/31 01:46:54;;;;;;;1.73;1.50;;;;;;;9.48;72.36;100134.38;5092709;28;20036;-65
2023/12/31 01:49:20;;;;;;;1.95;1.40;;;;;;;9.48;72.45;100136.31;5093013;28;20035;-65
2023/12/31 01:51:45;;;;;;;2.40;1.70;;;;;;;9.49;72.23;100121.34;5093104;28;20093;-65
2023/12/31 01:54:11;;;;;;;3.30;1.70;;;;;;;9.48;72.13;100126.06;5073406;28;20032;-65
2023/12/31 01:56:38;;;;;;;3.13;1.50;;;;;;;9.48;72.03;100116.94;5092537;28;20020;-65
2023/12/31 01:59:04;;;;;;;2.00;1.50;;;;;;;9.46;71.91;100111.63;5092360;28;20503;-65
2023/12/31 02:01:32;;;;;;;2.40;1.40;;;;;;;9.44;72.17;100110.25;5078526;28;20035;-65
2023/12/31 02:03:57;;;;;;;2.28;1.30;;;;;;;9.43;72.13;100100.25;5079510;28;20032;-65
2023/12/31 02:06:23;;;;;;;2.53;1.38;;;;;;;9.46;72.25;100102.50;5084169;28;20028;-65
2023/12/31 02:08:48;;;;;;;3.92;1.70;;;;;;;9.45;72.23;100098.88;5091823;28;20036;-65
2023/12/31 02:11:15;;;;;;;2.55;1.55;;;;;;;9.46;71.56;100094.19;5093126;28;20034;-65
2023/12/31 02:13:43;;;;;;;1.95;1.65;;;;;;;9.46;71.75;100083.09;5093096;28;20035;-65
2023/12/31 02:16:15;;;;;;;1.85;1.58;;;;;;;9.44;71.81;100091.69;5091544;28;20073;-65
2023/12/31 02:18:41;;;;;;;2.55;1.42;;;;;;;9.43;71.94;100090.03;5088556;28;20046;-65
2023/12/31 02:21:07;;;;;;;2.47;1.80;;;;;;;9.41;71.60;100075.59;5083296;28;20479;-65
2023/12/31 02:23:33;;;;;;;1.83;1.50;;;;;;;9.42;71.85;100063.41;5068743;28;20032;-65
2023/12/31 02:26:11;;;;;;;2.00;1.80;;;;;;;9.43;72.28;100067.88;5071133;28;20644;-65
2023/12/31 02:28:36;;;;;;;2.17;1.60;;;;;;;9.42;72.02;100057.84;5086181;28;20036;-65
2023/12/31 02:31:06;;;;;;;2.13;1.58;;;;;;;9.42;72.08;100048.72;5091605;28;20028;-64
2023/12/31 02:33:32;;;;;;;1.92;1.60;;;;;;;9.38;71.95;100042.88;5069488;28;20036;-65
2023/12/31 02:35:57;;;;;;;2.15;1.58;;;;;;;9.38;71.99;100045.66;5083214;28;20098;-65
2023/12/31 02:38:23;;;;;;;2.13;1.85;;;;;;;9.38;72.09;100031.78;5092134;28;20123;-64
2023/12/31 02:40:48;;;;;;;2.35;1.75;;;;;;;9.39;72.00;100022.38;5091857;28;20036;-65
2023/12/31 02:43:13;;;;;;;3.03;1.60;;;;;;;9.41;72.02;100017.41;5084956;28;20043;-65
2023/12/31 02:45:39;;;;;;;1.90;1.80;;;;;;;9.44;71.53;100016.91;5077008;28;20035;-65
2023/12/31 02:48:06;;;;;;;2.38;1.70;;;;;;;9.43;71.58;100009.69;5081837;28;20028;-65
2023/12/31 02:50:31;;;;;;;3.05;1.80;;;;;;;9.42;72.00;100002.47;5071672;28;20094;-65
2023/12/31 02:52:57;;;;;;;2.00;1.65;;;;;;;9.43;72.03;99986.69;5091784;28;20036;-65
2023/12/31 02:55:22;;;;;;;2.75;2.00;;;;;;;9.44;72.01;99989.19;5091956;28;20023;-65
2023/12/31 02:57:47;;;;;;;2.28;1.60;;;;;;;9.43;71.60;99997.75;5091066;28;20538;-65
2023/12/31 03:00:13;;;;;;;2.58;1.80;;;;;;;9.43;71.85;99990.31;5091738;28;20078;-65
2023/12/31 03:02:41;;;;;;;1.60;1.50;;;;;;;9.43;71.64;99975.59;5051529;28;20488;-64
2023/12/31 03:05:12;;;;;;;2.67;1.75;;;;;;;9.43;72.10;99968.16;5061872;28;20035;-65
2023/12/31 03:07:37;;;;;;;2.88;1.52;;;;;;;9.41;71.80;99975.88;5069092;28;20044;-65
2023/12/31 03:10:03;;;;;;;3.22;1.83;;;;;;;9.42;72.10;99962.84;5082881;28;20025;-65
2023/12/31 03:12:28;;;;;;;2.60;1.70;;;;;;;9.46;71.95;99966.75;5070611;28;20039;-65
2023/12/31 03:14:55;;;;;;;2.15;1.80;;;;;;;9.40;71.80;99952.06;5071289;28;20051;-65
2023/12/31 03:17:21;;;;;;;2.17;1.80;;;;;;;9.42;72.00;99947.06;5070423;28;20034;-65
2023/12/31 03:19:46;;;;;;;2.70;1.65;;;;;;;9.42;71.62;99938.75;5069527;28;20040;-65
2023/12/31 03:22:11;;;;;;;2.85;1.70;;;;;;;9.43;71.57;99925.75;5071252;28;20032;-65
2023/12/31 03:24:37;;;;;;;2.33;1.80;;;;;;;9.45;72.10;99912.47;5089849;28;20032;-65
2023/12/31 03:27:02;;;;;;;2.83;1.65;;;;;;;9.46;71.59;99900.28;5067630;28;20021;-65
2023/12/31 03:29:27;;;;;;;2.00;1.80;;;;;;;9.44;71.34;99899.72;5067400;28;20292;-64
2023/12/31 03:31:53;;;;;;;2.65;1.80;;;;;;;9.44;71.44;99896.97;5070378;28;20025;-64
2023/12/31 03:34:18;;;;;;;2.65;1.85;;;;;;;9.42;71.45;99894.44;5069015;28;20036;-65
2023/12/31 03:36:44;;;;;;;1.80;1.70;;;;;;;9.44;71.51;99881.19;5080173;28;20031;-65
2023/12/31 03:39:14;;;;;;;3.80;1.65;;;;;;;9.45;71.53;99882.00;5090615;28;20056;-65
2023/12/31 03:41:39;;;;;;;2.08;1.60;;;;;;;9.40;71.58;99866.19;5091080;28;20107;-65
2023/12/31 03:44:04;;;;;;;3.80;1.80;;;;;;;9.42;71.29;99855.66;5090718;28;20103;-65
2023/12/31 03:46:30;;;;;;;2.70;1.73;;;;;;;9.41;71.62;99854.00;5069082;28;20039;-65
2023/12/31 03:48:55;;;;;;;3.03;2.00;;;;;;;9.42;71.44;99846.53;5068259;28;20094;-65
2023/12/31 03:51:20;;;;;;;2.78;1.65;;;;;;;9.43;71.73;99839.88;5071277;28;20376;-65
2023/12/31 03:53:46;;;;;;;1.90;1.70;;;;;;;9.44;71.73;99839.63;5070261;28;20029;-65
2023/12/31 03:56:11;;;;;;;2.65;1.65;;;;;;;9.41;71.68;99842.94;5077481;28;20063;-65
2023/12/31 03:58:37;;;;;;;2.65;1.85;;;;;;;9.41;71.65;99826.31;5091190;28;20560;-65
2023/12/31 04:01:03;;;;;;;2.03;1.83;;;;;;;9.41;71.62;99820.78;5090114;28;20031;-65
2023/12/31 04:03:31;;;;;;;2.60;1.85;;;;;;;9.43;71.79;99813.03;5085420;28;20036;-65
2023/12/31 04:05:57;;;;;;;3.97;1.90;;;;;;;9.42;71.94;99814.13;5073391;28;20031;-65
2023/12/31 04:08:22;;;;;;;1.92;1.75;;;;;;;9.40;71.46;99805.28;5065306;28;20033;-65
2023/12/31 04:10:47;;;;;;;1.90;1.65;;;;;;;9.43;71.55;99790.03;5070911;28;20063;-65
2023/12/31 04:13:12;;;;;;;2.83;1.75;;;;;;;9.41;71.84;99793.06;5070753;28;20376;-65
2023/12/31 04:15:38;;;;;;;3.33;2.00;;;;;;;9.45;71.94;99793.38;5070044;28;20024;-65
2023/12/31 04:18:06;;;;;;;3.38;1.98;;;;;;;9.45;71.80;99787.84;5069712;28;20036;-65
2023/12/31 04:20:31;;;;;;;1.95;1.70;;;;;;;9.44;71.77;99777.88;5068945;28;20028;-65
2023/12/31 04:22:56;;;;;;;2.83;1.80;;;;;;;9.45;71.69;99766.50;5076393;28;20028;-65
2023/12/31 04:25:22;;;;;;;2.08;1.83;;;;;;;9.43;71.35;99760.41;5070912;28;20028;-65
2023/12/31 04:27:47;;;;;;;2.75;1.90;;;;;;;9.43;71.68;99763.19;5053971;28;20096;-65
2023/12/31 04:30:12;;;;;;;2.60;2.00;;;;;;;9.45;71.70;99760.97;5053763;28;20071;-65
2023/12/31 04:32:38;;;;;;;3.10;1.90;;;;;;;9.41;71.30;99748.75;5054328;28;20029;-65
2023/12/31 04:35:04;;;;;;;3.25;2.20;;;;;;;9.42;71.22;99749.59;5071454;28;20046;-65
2023/12/31 04:37:30;;;;;;;2.38;2.00;;;;;;;9.40;71.07;99754.59;5072322;28;20059;-65
2023/12/31 04:39:55;;;;;;;2.95;1.88;;;;;;;9.40;71.24;99746.28;5072091;28;20411;-65
2023/12/31 04:42:21;;;;;;;3.05;2.20;;;;;;;9.40;71.51;99743.50;5070063;28;20017;-65
2023/12/31 04:44:46;;;;;;;3.28;1.95;;;;;;;9.37;71.35;99742.09;5059923;28;20108;-65
2023/12/31 04:47:11;;;;;;;2.45;1.77;;;;;;;9.36;71.43;99734.91;5066535;28;20097;-65
2023/12/31 04:49:37;;;;;;;2.50;2.00;;;;;;;9.38;71.59;99732.69;5093222;28;20044;-65
2023/12/31 04:52:02;;;;;;;2.10;1.90;;;;;;;9.38;71.65;99726.31;5094285;28;20024;-65
2023/12/31 04:54:27;;;;;;;2.40;2.20;;;;;;;9.38;71.65;99729.91;5081754;28;20061;-65
2023/12/31 04:56:53;;;;;;;2.40;2.08;;;;;;;9.38;71.66;99721.59;5073567;28;20115;-65
2023/12/31 04:59:21;;;;;;;3.78;2.38;;;;;;;9.39;71.75;99714.13;5093665;28;20047;-65
2023/12/31 05:01:50;;;;;;;2.58;1.90;;;;;;;9.39;71.88;99717.72;5080036;28;20025;-65
2023/12/31 05:04:15;;;;;;;2.38;2.05;;;;;;;9.40;71.65;99704.75;5060476;28;20116;-64
2023/12/31 05:06:41;;;;;;;5.03;2.20;;;;;;;9.39;72.16;99697.50;5053738;28;20103;-64
2023/12/31 05:09:08;;;;;;;2.47;2.05;;;;;;;9.43;72.28;99695.84;5053658;28;20121;-65
2023/12/31 05:11:34;;;;;;;4.43;2.10;;;;;;;9.40;71.96;99691.72;5053527;28;20032;-65
2023/12/31 05:13:59;;;;;;;2.20;2.00;;;;;;;9.43;72.01;99685.63;5057243;28;20033;-64
2023/12/31 05:16:26;;;;;;;2.45;2.10;;;;;;;9.44;72.03;99692.00;5065903;28;20071;-66
2023/12/31 05:18:53;;;;;;;2.78;2.40;;;;;;;9.44;71.89;99678.16;5071323;28;20044;-64
2023/12/31 05:21:18;;;;;;;2.42;2.10;;;;;;;9.46;72.12;99671.22;5089374;28;20059;-64
2023/12/31 05:23:44;;;;;;;2.38;2.10;;;;;;;9.47;72.42;99666.50;5093307;28;20383;-64
2023/12/31 05:26:09;;;;;;;3.45;2.10;;;;;;;9.47;71.98;99653.50;5053520;28;20086;-64
2023/12/31 05:28:34;;;;;;;3.50;2.28;;;;;;;9.47;72.01;99650.75;5074756;28;20035;-65
2023/12/31 05:31:00;;;;;;;2.88;2.30;;;;;;;9.49;72.32;99656.81;5059729;28;20448;-64
2023/12/31 05:33:25;;;;;;;2.42;2.00;;;;;;;9.49;72.16;99656.81;5062627;28;20032;-64
2023/12/31 05:35:51;;;;;;;3.38;2.10;;;;;;;9.50;72.28;99641.84;5092948;28;20066;-64
2023/12/31 05:38:16;;;;;;;3.70;2.38;;;;;;;9.47;72.03;99634.13;5087699;28;20601;-63
2023/12/31 05:40:42;;;;;;;4.03;2.30;;;;;;;9.46;72.23;99624.13;5073102;28;20058;-64
2023/12/31 05:43:07;;;;;;;4.40;2.42;;;;;;;9.49;72.26;99631.91;5071280;28;20124;-65
2023/12/31 05:45:32;;;;;;;3.25;2.13;;;;;;;9.49;71.95;99642.16;5072180;28;20028;-64
2023/12/31 05:47:58;;;;;;;2.65;2.45;;;;;;;9.50;72.83;99622.47;5069942;28;20044;-64
2023/12/31 05:50:23;;;;;;;2.75;2.55;;;;;;;9.49;71.85;99609.75;5057570;28;20383;-64
2023/12/31 05:52:48;;;;;;;2.38;1.95;;;;;;;9.48;72.21;99613.63;5091715;28;20039;-64
2023/12/31 05:55:14;;;;;;;3.15;2.17;;;;;;;9.47;72.43;99609.19;5093050;28;20035;-64
2023/12/31 05:57:40;;;;;;;2.70;2.40;;;;;;;9.47;72.02;99600.88;5074645;28;20119;-64
2023/12/31 06:00:07;;;;;;;4.10;2.40;;;;;;;9.48;72.17;99615.56;5072012;28;20075;-64
2023/12/31 06:02:32;;;;;;;3.38;2.50;;;;;;;9.45;72.25;99605.88;5081964;28;20116;-64
2023/12/31 06:04:58;;;;;;;2.78;2.47;;;;;;;9.45;72.33;99596.72;5092783;28;20450;-64
2023/12/31 06:07:23;;;;;;;2.90;2.53;;;;;;;9.45;72.30;99596.72;5073974;28;20115;-64
2023/12/31 06:09:49;;;;;;;3.45;2.47;;;;;;;9.47;72.46;99591.72;5060197;28;20488;-64
2023/12/31 06:12:14;;;;;;;2.38;2.17;;;;;;;9.47;72.12;99584.28;5064201;28;20028;-65
2023/12/31 06:14:39;;;;;;;2.40;2.20;;;;;;;9.49;71.89;99584.81;5068203;28;20067;-65
2023/12/31 06:17:05;;;;;;;2.55;2.25;;;;;;;9.49;72.07;99595.06;5072595;28;20362;-65
2023/12/31 06:19:30;;;;;;;2.70;2.50;;;;;;;9.48;72.05;99566.53;5072394;28;20395;-65
2023/12/31 06:21:55;;;;;;;2.35;2.15;;;;;;;9.50;72.18;99583.69;5071695;28;20455;-65
2023/12/31 06:24:20;;;;;;;2.58;2.40;;;;;;;9.49;72.07;99567.38;5090381;28;20028;-64
2023/12/31 06:26:46;;;;;;;2.95;2.65;;;;;;;9.49;72.05;99568.19;5063845;28;20499;-64
2023/12/31 06:29:12;;;;;;;3.33;2.60;;;;;;;9.49;72.29;99562.66;5052070;28;20043;-64
2023/12/31 06:31:37;;;;;;;3.05;2.30;;;;;;;9.48;72.25;99557.41;5065070;28;20028;-64
2023/12/31 06:34:03;;;;;;;3.00;2.70;;;;;;;9.49;72.03;99542.44;5064384;28;20051;-64
2023/12/31 06:36:28;;;;;;;3.10;2.35;;;;;;;9.51;72.26;99549.38;5051439;28;20047;-65
2023/12/31 06:38:54;;;;;;;4.70;2.53;;;;;;;9.52;72.14;99547.44;5051973;28;20496;-64
2023/12/31 06:41:22;;;;;;;2.70;2.50;;;;;;;9.51;71.74;99534.66;5079016;28;20102;-64
2023/12/31 06:43:48;;;;;;;2.80;2.58;;;;;;;9.52;72.13;99522.50;5091803;28;20081;-64
2023/12/31 06:46:14;;;;;;;3.03;2.63;;;;;;;9.52;71.93;99523.31;5092061;28;20032;-64
2023/12/31 06:48:40;;;;;;;3.13;2.72;;;;;;;9.53;72.36;99524.97;5084521;28;20025;-64
2023/12/31 06:51:08;;;;;;;2.67;2.25;;;;;;;9.55;72.35;99508.09;5057804;28;20636;-64
2023/12/31 06:53:34;;;;;;;2.58;2.38;;;;;;;9.54;71.68;99495.34;5051822;28;20025;-64
2023/12/31 06:56:06;;;;;;;4.07;2.63;;;;;;;9.56;71.94;99507.81;5067862;28;20054;-65
2023/12/31 06:58:31;;;;;;;2.67;2.42;;;;;;;9.57;71.81;99503.91;5091777;28;20054;-65
2023/12/31 07:00:57;;;;;;;2.75;2.22;;;;;;;9.58;71.71;99500.03;5091606;28;20356;-65
2023/12/31 07:03:22;;;;;;;3.50;2.50;;;;;;;9.58;72.08;99486.19;5090941;28;20027;-65
2023/12/31 07:05:47;;;;;;;2.90;2.25;;;;;;;9.60;71.81;99485.91;5091757;28;20056;-65
2023/12/31 07:08:13;;;;;;;2.90;2.60;;;;;;;9.62;72.00;99489.22;5087459;28;20444;-65
2023/12/31 07:10:38;;;;;;;3.80;2.70;;;;;;;9.64;71.45;99494.50;5066523;28;20849;-64
2023/12/31 07:13:04;;;;;;;3.70;2.50;;;;;;;9.65;72.02;99483.13;5059009;28;20156;-64
2023/12/31 07:15:30;;;;;;;3.00;2.50;;;;;;;9.67;71.56;99475.38;5088982;28;20028;-64
2023/12/31 07:17:56;;;;;;;2.72;2.53;;;;;;;9.69;71.48;99469.53;5079192;28;20081;-64
2023/12/31 07:20:21;;;;;;;2.85;2.50;;;;;;;9.71;71.39;99453.50;5091185;28;20036;-64
2023/12/31 07:22:46;;;;;;;2.80;2.60;;;;;;;9.72;71.74;99455.13;5091281;28;20098;-64
2023/12/31 07:25:12;;;;;;;2.75;2.30;;;;;;;9.72;71.57;99444.88;5090566;28;20071;-64
2023/12/31 07:27:37;;;;;;;2.60;2.40;;;;;;;9.73;71.45;99440.16;5061848;28;20025;-64
2023/12/31 07:30:02;;;;;;;4.15;2.55;;;;;;;9.74;71.40;99442.63;5071077;28;20025;-64
2023/12/31 07:32:28;;;;;;;2.75;2.55;;;;;;;9.77;71.32;99441.25;5069584;28;20040;-64
2023/12/31 07:34:53;;;;;;;2.75;2.55;;;;;;;9.77;71.42;99446.81;5067399;28;20024;-64
2023/12/31 07:37:18;;;;;;;3.08;2.58;;;;;;;9.79;71.17;99441.81;5077815;28;20468;-64
2023/12/31 07:39:44;;;;;;;2.58;2.38;;;;;;;9.81;71.17;99429.31;5088151;28;20048;-64
2023/12/31 07:42:09;;;;;;;3.75;2.97;;;;;;;9.83;71.08;99423.50;5090057;28;20028;-64
2023/12/31 07:44:35;;;;;;;3.25;2.60;;;;;;;9.83;71.19;99432.66;5089392;28;20028;-64
2023/12/31 07:47:03;;;;;;;3.17;2.15;;;;;;;9.86;70.83;99428.47;5065847;28;20373;-65
2023/12/31 07:49:30;;;;;;;2.78;2.40;;;;;;;9.87;70.88;99421.00;5054926;28;20802;-64
2023/12/31 07:51:55;;;;;;;3.13;2.50;;;;;;;9.89;70.99;99424.31;5088728;28;20809;-65
2023/12/31 07:54:20;;;;;;;3.05;2.75;;;;;;;9.90;71.04;99417.66;5090906;28;20062;-64
2023/12/31 07:56:46;;;;;;;3.38;3.08;;;;;;;9.91;71.12;99431.25;5082837;28;20032;-63
2023/12/31 07:59:11;;;;;;;2.35;2.15;;;;;;;9.93;71.34;99419.84;5071347;28;20036;-64
2023/12/31 08:01:36;;;;;;;4.90;2.60;;;;;;;9.94;71.55;99411.28;5062139;28;20056;-64
2023/12/31 08:04:02;;;;;;;3.17;2.88;;;;;;;9.94;71.58;99430.69;5074430;28;20423;-64
2023/12/31 08:06:27;;;;;;;3.05;2.72;;;;;;;9.96;72.01;99417.34;5073380;28;20025;-73
2023/12/31 08:08:53;;;;;;;2.72;2.40;;;;;;;9.97;72.33;99418.19;5067724;28;20029;-64
2023/12/31 08:11:20;;;;;;;2.97;2.63;;;;;;;9.97;72.16;99418.19;5069347;28;20515;-64
2023/12/31 08:13:46;;;;;;;2.75;2.50;;;;;;;9.98;71.72;99419.81;5083786;28;20031;-63
2023/12/31 08:16:11;;;;;;;2.50;2.30;;;;;;;9.97;72.05;99401.53;5072475;28;20103;-64
2023/12/31 08:18:37;;;;;;;2.88;2.58;;;;;;;9.96;72.14;99411.81;5074089;28;20039;-63
2023/12/31 08:21:02;;;;;;;2.90;2.67;;;;;;;9.96;72.68;99410.97;5092353;28;20383;-63
2023/12/31 08:23:30;;;;;;;3.63;2.80;;;;;;;9.97;72.50;99423.72;5094104;28;20020;-64
2023/12/31 08:25:56;;;;;;;3.65;2.45;;;;;;;9.94;72.95;99411.28;5093910;28;20016;-64
2023/12/31 08:28:22;;;;;;;3.03;2.28;;;;;;;9.95;72.90;99415.69;5091000;28;20043;-64
2023/12/31 08:30:48;;;;;;;3.10;2.65;;;;;;;9.93;73.61;99404.06;5078588;28;20101;-65
2023/12/31 08:33:13;;;;;;;2.88;2.40;;;;;;;9.92;73.81;99416.25;5059229;28;20494;-64
2023/12/31 08:35:42;;;;;;;2.90;2.60;;;;;;;9.92;74.35;99423.75;5055290;28;20040;-65
2023/12/31 08:38:07;;;;;;;3.20;2.90;;;;;;;9.90;74.89;99412.94;5053428;28;20051;-65
2023/12/31 08:40:32;;;;;;;3.30;2.67;;;;;;;9.88;75.65;99404.09;5053646;28;20052;-64
2023/12/31 08:42:58;;;;;;;3.80;2.63;;;;;;;9.85;75.71;99410.19;5077509;28;20039;-65
2023/12/31 08:45:23;;;;;;;2.95;2.75;;;;;;;9.83;76.63;99398.56;5093735;28;20106;-65
2023/12/31 08:47:49;;;;;;;2.90;2.63;;;;;;;9.82;76.98;99430.16;5093916;28;20491;-64
2023/12/31 08:50:15;;;;;;;4.60;2.85;;;;;;;9.80;77.21;99413.00;5065808;28;20037;-64
2023/12/31 08:52:43;;;;;;;2.60;2.40;;;;;;;9.78;76.44;99418.78;5093749;28;20031;-65
2023/12/31 08:55:09;;;;;;;2.75;2.55;;;;;;;9.77;77.07;99403.28;5073573;28;20434;-64
2023/12/31 08:57:35;;;;;;;3.22;2.67;;;;;;;9.77;77.57;99402.47;5073518;28;20028;-64
2023/12/31 09:00:01;;;;;;;2.72;2.45;;;;;;;9.75;77.14;99405.53;5082310;28;20473;-65
2023/12/31 09:02:26;;;;;;;2.63;2.15;;;;;;;9.73;76.95;99418.00;5092914;28;20427;-65
2023/12/31 09:04:51;;;;;;;2.50;2.30;;;;;;;9.73;77.66;99412.47;5092744;28;20165;-64
2023/12/31 09:07:16;;;;;;;2.50;2.30;;;;;;;9.73;77.92;99423.53;5092301;28;20146;-64
2023/12/31 09:09:42;;;;;;;3.95;2.50;;;;;;;9.68;78.10;99421.63;5081563;28;20032;-64
2023/12/31 09:12:07;;;;;;;3.03;2.40;;;;;;;9.67;78.34;99425.50;5079684;28;20024;-63
2023/12/31 09:14:33;;;;;;;3.10;2.58;;;;;;;9.66;78.16;99426.59;5073654;28;20029;-64
2023/12/31 09:16:58;;;;;;;3.00;2.70;;;;;;;9.63;78.51;99423.56;5063541;28;20400;-63
2023/12/31 09:19:26;;;;;;;4.35;3.20;;;;;;;9.59;78.18;99435.22;5078671;28;20064;-63
2023/12/31 09:21:52;;;;;;;5.32;3.30;;;;;;;9.62;78.70;99427.44;5092576;28;20093;-63
2023/12/31 09:24:18;;;;;;;2.90;2.70;;;;;;;9.58;78.16;99433.56;5092696;28;20024;-62
2023/12/31 09:26:43;;;;;;;3.30;2.75;;;;;;;9.59;78.11;99438.00;5092940;28;20046;-63
2023/12/31 09:29:08;;;;;;;2.90;2.70;;;;;;;9.59;78.32;99446.31;5092739;28;20124;-64
2023/12/31 09:31:34;;;;;;;2.60;2.38;;;;;;;9.60;77.96;99438.81;5084508;28;20029;-64
2023/12/31 09:33:59;;;;;;;4.38;2.67;;;;;;;9.59;77.63;99439.94;5062971;28;20048;-63
2023/12/31 09:36:25;;;;;;;2.72;2.00;;;;;;;9.61;77.63;99450.72;5071412;28;20028;-63
2023/12/31 09:38:50;;;;;;;2.40;2.20;;;;;;;9.64;77.39;99456.53;5070189;28;20051;-62
2023/12/31 09:41:25;;;;;;;2.75;1.65;;;;;;;9.58;76.35;99461.25;5072365;28;20052;-64
2023/12/31 09:43:52;;;;;;;2.42;1.90;;;;;;;9.56;76.17;99459.88;5087454;28;20046;-63
2023/12/31 09:46:21;;;;;;;2.47;1.80;;;;;;;9.55;76.25;99449.94;5091905;28;20468;-63
2023/12/31 09:48:50;;;;;;;5.78;2.10;;;;;;;9.53;75.71;99466.81;5082486;28;20023;-63
2023/12/31 09:51:17;;;;;;;4.10;3.33;;;;;;;9.53;75.65;99469.56;5074860;28;20070;-63
2023/12/31 09:53:45;;;;;;;4.50;4.03;;;;;;;9.54;75.79;99475.94;5064134;28;20055;-64
2023/12/31 09:56:11;;;;;;;6.65;4.72;;;;;;;9.58;75.78;99480.63;5079834;28;20519;-65
2023/12/31 09:58:37;;;;;;;5.13;4.65;;;;;;;9.58;74.79;99477.03;5080222;28;20042;-64
2023/12/31 10:01:02;;;;;;;4.50;4.10;;;;;;;9.58;74.92;99480.63;5072341;28;20033;-63
2023/12/31 10:03:28;;;;;;;5.00;4.60;;;;;;;9.59;74.81;99485.09;5072936;28;20040;-63
2023/12/31 10:05:53;;;;;;;3.90;2.15;;;;;;;9.62;74.99;99471.78;5086771;28;20103;-63
2023/12/31 10:08:19;;;;;;;2.78;1.75;;;;;;;9.61;74.58;99476.50;5071728;28;20040;-62
2023/12/31 10:10:45;;;;;;;2.35;1.65;;;;;;;9.64;74.27;99467.63;5078118;28;20035;-62
2023/12/31 10:13:17;;;;;;;2.25;1.55;;;;;;;9.63;72.94;99467.88;5082073;28;20017;-62
2023/12/31 10:15:43;;;;;;;2.55;1.42;;;;;;;9.66;73.27;99462.63;5079110;28;20036;-63
2023/12/31 10:18:09;;;;;;;2.08;1.40;;;;;;;9.69;73.06;99472.31;5082998;28;20518;-62
2023/12/31 10:20:38;;;;;;;1.73;1.55;;;;;;;9.71;73.54;99462.63;5085535;28;20116;-63
2023/12/31 10:23:04;;;;;;;2.10;1.60;;;;;;;9.72;73.10;99466.22;5055595;28;20044;-63
2023/12/31 10:25:30;;;;;;;1.98;1.30;;;;;;;9.72;73.31;99466.22;5071282;28;20039;-63
2023/12/31 10:27:55;;;;;;;3.38;1.80;;;;;;;9.72;73.84;99466.22;5074258;28;20066;-60
2023/12/31 10:30:21;;;;;;;2.83;2.00;;;;;;;9.68;75.32;99463.19;5084992;28;20717;-61
2023/12/31 10:32:48;;;;;;;2.50;1.52;;;;;;;9.75;75.67;99479.53;5075354;28;20094;-60
2023/12/31 10:35:17;;;;;;;3.67;2.05;;;;;;;9.72;75.69;99469.00;5063694;28;20056;-64
2023/12/31 10:37:43;;;;;;;7.38;4.32;;;;;;;9.66;76.11;99472.88;5061092;28;20708;-65
2023/12/31 10:40:22;;;;;;;4.82;2.90;;;;;;;9.63;76.62;99470.66;5063711;28;20095;-64
2023/12/31 10:42:55;;;;;;;7.15;2.55;;;;;;;9.65;77.01;99485.06;5090276;28;20058;-63
2023/12/31 10:45:21;;;;;;;3.33;2.60;;;;;;;9.67;76.75;99486.47;5059787;28;20021;-64
2023/12/31 10:47:51;;;;;;;5.22;3.08;;;;;;;9.68;77.94;99487.28;5055511;28;20082;-64
2023/12/31 10:50:22;;;;;;;3.83;1.88;;;;;;;9.69;77.90;99488.94;5055248;28;20031;-63
2023/12/31 10:52:50;;;;;;;3.33;1.90;;;;;;;9.67;78.28;99482.84;5061672;28;20024;-62
2023/12/31 10:55:17;;;;;;;3.35;1.92;;;;;;;9.69;78.41;99478.69;5058921;28;20017;-64
2023/12/31 10:57:47;;;;;;;4.32;1.73;;;;;;;9.62;78.42;99472.59;5055526;28;20025;-64
2023/12/31 11:00:13;;;;;;;2.70;2.17;;;;;;;9.65;78.47;99474.00;5062666;28;20043;-63
2023/12/31 11:02:41;;;;;;;4.60;1.55;;;;;;;9.59;78.05;99462.94;5054237;28;20041;-64
2023/12/31 11:05:08;;;;;;;4.22;1.65;;;;;;;9.56;77.85;99474.56;5059395;28;20074;-65
2023/12/31 11:07:35;;;;;;;2.33;1.75;;;;;;;9.56;78.10;99477.34;5064077;28;20033;-64
2023/12/31 11:10:01;;;;;;;8.80;3.28;;;;;;;9.57;78.62;99481.75;5063419;28;20406;-64
2023/12/31 11:12:27;;;;;;;3.85;1.80;;;;;;;9.61;77.64;99487.56;5063324;28;20040;-65
2023/12/31 11:14:58;;;;;;;4.00;1.67;;;;;;;9.65;77.83;99476.75;5060266;28;20035;-62
2023/12/31 11:17:44;;;;;;;7.18;2.00;;;;;;;9.70;77.37;99490.59;5060943;28;20394;-63
2023/12/31 11:20:52;;;;;;;5.53;2.60;;;;;;;9.76;77.12;99489.47;5061692;28;20038;-64
2023/12/31 11:23:36;;;;;;;3.00;1.40;;;;;;;9.77;76.60;99480.06;5052871;28;20366;-63
2023/12/31 11:26:02;;;;;;;3.00;2.10;;;;;;;9.81;76.96;99478.38;5061909;28;20104;-62
2023/12/31 11:28:30;;;;;;;3.92;2.08;;;;;;;9.82;76.50;99477.25;5052740;28;20528;-62
2023/12/31 11:30:58;;;;;;;4.10;1.60;;;;;;;9.77;75.62;99480.06;5059876;28;20037;-64
2023/12/31 11:33:31;;;;;;;2.63;1.63;;;;;;;9.81;75.68;99495.00;5062477;28;20649;-64